Main page
METAR-TAF:

METAR-TAF

Airports :

Vardø Airport. Svartnes

Vardø, Norway

latitude: 70-21N, longitude: 031-03E, elevation: 12 m

Current weather observation

The report was made 21 minutes ago, at 09:50 UTC
Wind 14 kt from the North
Temperature 2°C
Humidity 64%
Pressure 1022 hPa
Visibility 10 km or more
Broken clouds at a height of 2700 ft

METAR: ENSS 220950Z 01014KT 9999 BKN027 02/M04 Q1022 RMK WIND 500FT 03021KT

Time: 12:11 (10:11 UTC)


TAF: missing

Weather observations and forecasts of more than 4000 airports (METAR and TAF reports).

The available stations are represented by yellow and red dots on the map.

Hover mouse over dot to see the name of the station.

Then click to see weather observations and forecasts.

To change the map : click on the green buttons with a black cross to zoom in, on the green button with a dash to zoom out, or on the green arrows for adjacent maps.


METAR-TAF: